createdAt,value
2022-10-21T00:00:41.199Z,6.50
2022-10-21T00:03:08.554Z,6.60
2022-10-21T00:05:35.751Z,7.00
2022-10-21T00:08:02.990Z,7.13
2022-10-21T00:10:30.311Z,6.50
2022-10-21T00:12:57.547Z,6.13
2022-10-21T00:15:24.683Z,6.37
2022-10-21T00:17:51.875Z,6.30
2022-10-21T00:20:19.662Z,6.30
2022-10-21T00:22:47.232Z,6.00
2022-10-21T00:25:14.978Z,5.97
2022-10-21T00:27:42.190Z,6.03
2022-10-21T00:30:12.516Z,6.07
2022-10-21T00:32:40.052Z,6.53
2022-10-21T00:35:07.749Z,5.97
2022-10-21T00:37:35.101Z,6.07
2022-10-21T00:40:02.401Z,5.53
2022-10-21T00:42:42.145Z,5.67
2022-10-21T00:45:24.267Z,5.50
2022-10-21T00:48:08.696Z,6.10
2022-10-21T00:50:51.834Z,5.37
2022-10-21T00:53:19.832Z,5.60
2022-10-21T00:55:59.985Z,5.50
2022-10-21T00:58:31.935Z,5.67
2022-10-21T01:01:02.671Z,5.77
2022-10-21T01:03:34.058Z,5.17
2022-10-21T01:06:09.153Z,5.57
2022-10-21T01:08:37.737Z,5.30
2022-10-21T01:11:15.327Z,5.80
2022-10-21T01:14:03.352Z,5.53
2022-10-21T01:16:48.072Z,5.17
2022-10-21T01:19:42.732Z,5.30
2022-10-21T01:22:52.890Z,5.30
2022-10-21T01:25:56.301Z,5.33
2022-10-21T01:29:09.264Z,5.70
2022-10-21T01:32:25.510Z,4.93
2022-10-21T01:35:02.905Z,5.33
2022-10-21T01:37:57.142Z,5.80
2022-10-21T01:40:48.271Z,5.33
2022-10-21T01:43:49.446Z,6.00
2022-10-21T01:46:47.453Z,5.60
2022-10-21T01:49:40.188Z,5.20
2022-10-21T01:52:08.970Z,5.90
2022-10-21T01:54:43.388Z,5.57
2022-10-21T01:57:16.003Z,6.07
2022-10-21T01:59:46.562Z,5.50
2022-10-21T02:02:16.265Z,5.93
2022-10-21T02:04:47.541Z,5.80
2022-10-21T02:07:14.771Z,5.83
2022-10-21T02:09:42.052Z,5.97
2022-10-21T02:12:10.680Z,5.50
2022-10-21T02:14:47.402Z,6.33
2022-10-21T02:17:21.075Z,5.43
2022-10-21T02:19:48.860Z,5.67
2022-10-21T02:22:22.833Z,5.67
2022-10-21T02:25:08.487Z,5.20
2022-10-21T02:27:36.101Z,6.60
2022-10-21T02:30:03.843Z,5.50
2022-10-21T02:33:01.403Z,5.40
2022-10-21T02:35:39.824Z,5.30
2022-10-21T02:38:24.821Z,5.80
2022-10-21T02:40:57.050Z,5.67
2022-10-21T02:43:52.106Z,5.40
2022-10-21T02:46:19.406Z,5.20
2022-10-21T02:48:49.020Z,6.23
2022-10-21T02:51:16.962Z,5.80
2022-10-21T02:53:44.319Z,5.83
2022-10-21T02:56:11.493Z,5.97
2022-10-21T02:58:38.579Z,5.90
2022-10-21T03:01:05.967Z,6.23
2022-10-21T03:03:33.146Z,5.60
2022-10-21T03:06:00.283Z,5.77
2022-10-21T03:08:27.582Z,5.40
2022-10-21T03:10:55.194Z,6.10
2022-10-21T03:13:23.097Z,5.93
2022-10-21T03:15:51.209Z,6.00
2022-10-21T03:18:19.440Z,5.73
2022-10-21T03:20:52.052Z,6.40
2022-10-21T03:23:20.969Z,5.93
2022-10-21T03:25:48.154Z,5.47
2022-10-21T03:28:15.950Z,6.33
2022-10-21T03:30:43.144Z,6.30
2022-10-21T03:33:10.307Z,5.60
2022-10-21T03:35:37.605Z,7.83
2022-10-21T03:38:04.975Z,9.73
2022-10-21T03:40:32.090Z,24.67
2022-10-21T03:43:00.102Z,29.67
2022-10-21T03:45:27.623Z,17.50
2022-10-21T03:47:54.964Z,12.07
2022-10-21T03:50:26.029Z,23.37
2022-10-21T03:52:54.399Z,9.93
2022-10-21T03:55:22.262Z,9.07
2022-10-21T03:57:49.525Z,8.50
2022-10-21T04:00:17.275Z,7.63
2022-10-21T04:02:44.432Z,9.63
2022-10-21T04:05:13.758Z,13.37
2022-10-21T04:07:41.440Z,12.47
2022-10-21T04:10:09.764Z,7.63
2022-10-21T04:12:37.425Z,10.13
2022-10-21T04:15:09.553Z,13.10
2022-10-21T04:17:36.866Z,8.10
2022-10-21T04:20:04.885Z,7.07
2022-10-21T04:22:32.118Z,10.57
2022-10-21T04:25:00.965Z,8.20
2022-10-21T04:27:31.188Z,7.60
2022-10-21T04:29:58.355Z,7.90
2022-10-21T04:32:25.622Z,6.77
2022-10-21T04:34:52.787Z,6.13
2022-10-21T04:37:20.092Z,10.57
2022-10-21T04:39:47.280Z,12.27
2022-10-21T04:42:14.660Z,9.90
2022-10-21T04:44:41.982Z,6.63
2022-10-21T04:47:09.244Z,6.70
2022-10-21T04:49:36.519Z,6.70
2022-10-21T04:52:05.763Z,7.67
2022-10-21T04:54:32.920Z,7.77
2022-10-21T04:57:00.300Z,7.47
2022-10-21T04:59:27.444Z,7.63
2022-10-21T05:01:54.722Z,6.80
2022-10-21T05:04:21.930Z,7.47
2022-10-21T05:06:49.062Z,8.60
2022-10-21T05:09:16.475Z,18.40
2022-10-21T05:11:43.654Z,18.77
2022-10-21T05:14:10.866Z,15.67
2022-10-21T05:16:38.071Z,14.23
2022-10-21T05:19:05.326Z,12.47
2022-10-21T05:21:32.513Z,12.33
2022-10-21T05:23:59.677Z,10.93
2022-10-21T05:26:26.810Z,11.20
2022-10-21T05:28:54.016Z,11.37
2022-10-21T05:31:21.201Z,17.33
2022-10-21T05:33:48.403Z,10.63
2022-10-21T05:36:16.830Z,10.27
2022-10-21T05:38:45.089Z,11.33
2022-10-21T05:41:12.442Z,11.70
2022-10-21T05:43:39.648Z,10.63
2022-10-21T05:46:06.953Z,9.57
2022-10-21T05:48:35.178Z,8.70
2022-10-21T05:51:03.719Z,9.33
2022-10-21T05:53:30.968Z,12.53
2022-10-21T05:56:05.270Z,10.53
2022-10-21T05:58:35.101Z,9.90
2022-10-21T06:01:02.908Z,16.53
2022-10-21T06:03:33.113Z,21.97
2022-10-21T06:06:04.280Z,17.70
2022-10-21T06:08:35.332Z,8.60
2022-10-21T06:11:05.816Z,8.33
2022-10-21T06:13:33.807Z,8.03
2022-10-21T06:16:01.639Z,7.50
2022-10-21T06:18:32.329Z,7.57
2022-10-21T06:20:59.683Z,7.33
2022-10-21T06:23:27.686Z,7.50
2022-10-21T06:26:02.809Z,8.57
2022-10-21T06:28:33.606Z,9.97
2022-10-21T06:31:01.541Z,7.30
2022-10-21T06:33:29.944Z,7.67
2022-10-21T06:35:57.403Z,7.47
2022-10-21T06:38:25.868Z,7.97
2022-10-21T06:41:00.725Z,9.20
2022-10-21T06:43:28.242Z,8.10
2022-10-21T06:46:09.645Z,6.53
2022-10-21T06:48:38.006Z,6.53
2022-10-21T06:51:10.300Z,6.63
2022-10-21T06:53:39.402Z,7.27
2022-10-21T06:56:10.696Z,7.43
2022-10-21T06:58:43.369Z,7.07
2022-10-21T07:01:27.629Z,7.10
2022-10-21T07:04:04.560Z,7.73
2022-10-21T07:09:00.621Z,6.87
2022-10-21T07:11:28.459Z,7.13
2022-10-21T07:13:56.517Z,7.30
2022-10-21T07:16:31.633Z,8.77
2022-10-21T07:18:59.119Z,10.43
2022-10-21T07:21:29.771Z,10.83
2022-10-21T07:23:59.642Z,12.07
2022-10-21T07:26:30.952Z,13.30
2022-10-21T07:28:59.306Z,12.40
2022-10-21T07:31:29.227Z,15.37
2022-10-21T07:33:56.837Z,14.30
2022-10-21T07:36:28.942Z,14.43
2022-10-21T07:39:01.310Z,14.67
2022-10-21T07:41:40.208Z,14.80
2022-10-21T07:44:08.976Z,13.80
2022-10-21T07:46:39.472Z,14.13
2022-10-21T07:49:07.952Z,14.47
2022-10-21T07:51:35.337Z,14.57
2022-10-21T07:54:03.089Z,14.50
2022-10-21T07:56:38.887Z,15.17
2022-10-21T07:59:12.454Z,16.97
2022-10-21T08:01:42.026Z,16.40
2022-10-21T08:04:12.030Z,16.70
2022-10-21T08:06:39.539Z,17.33
2022-10-21T08:09:18.093Z,16.93
2022-10-21T08:11:45.903Z,19.17
2022-10-21T08:14:13.679Z,16.97
2022-10-21T08:16:42.097Z,17.33
2022-10-21T08:19:17.973Z,18.93
2022-10-21T08:21:45.409Z,20.40
2022-10-21T08:24:13.073Z,20.53
2022-10-21T08:26:40.218Z,21.23
2022-10-21T08:29:07.585Z,18.20
2022-10-21T08:31:34.908Z,17.17
2022-10-21T08:34:02.033Z,17.70
2022-10-21T08:36:29.302Z,17.80
2022-10-21T08:38:57.692Z,16.67
2022-10-21T08:41:27.795Z,17.07
2022-10-21T08:44:02.063Z,16.90
2022-10-21T08:46:39.683Z,16.53
2022-10-21T08:50:01.989Z,16.37
2022-10-21T08:52:42.460Z,15.67
2022-10-21T08:55:22.316Z,15.30
2022-10-21T08:57:51.241Z,15.27
2022-10-21T09:00:27.643Z,14.73
2022-10-21T09:03:26.325Z,13.93
2022-10-21T09:06:00.776Z,15.53
2022-10-21T09:08:56.605Z,15.00
2022-10-21T09:11:57.777Z,15.40
2022-10-21T09:15:18.964Z,14.73
2022-10-21T09:17:58.092Z,14.73
2022-10-21T09:20:45.264Z,15.80
2022-10-21T09:23:37.238Z,15.97
2022-10-21T09:26:42.916Z,14.70
2022-10-21T09:29:42.827Z,15.33
2022-10-21T09:32:18.969Z,15.03
2022-10-21T09:35:15.316Z,15.30
2022-10-21T09:37:50.383Z,14.30
2022-10-21T09:40:29.940Z,15.57
2022-10-21T09:43:00.015Z,15.27
2022-10-21T09:45:39.076Z,16.00
2022-10-21T09:48:18.222Z,15.47
2022-10-21T09:51:01.103Z,15.90
2022-10-21T09:53:49.971Z,14.63
2022-10-21T09:56:39.363Z,15.93
2022-10-21T09:59:11.854Z,14.93
2022-10-21T10:01:42.710Z,15.40
2022-10-21T10:04:32.802Z,17.33
2022-10-21T10:07:26.312Z,19.13
2022-10-21T10:09:54.283Z,14.77
2022-10-21T10:12:28.129Z,16.03
2022-10-21T10:14:56.026Z,16.77
2022-10-21T10:17:33.404Z,17.27
2022-10-21T10:20:06.368Z,15.03
2022-10-21T10:22:38.953Z,14.63
2022-10-21T10:25:21.305Z,15.03
2022-10-21T10:28:09.936Z,14.03
2022-10-21T10:30:42.901Z,13.03
2022-10-21T10:33:16.647Z,12.93
2022-10-21T10:35:54.696Z,13.60
2022-10-21T10:38:51.998Z,12.67
2022-10-21T10:41:19.804Z,13.90
2022-10-21T10:43:53.113Z,13.67
2022-10-21T10:46:30.827Z,14.13
2022-10-21T10:49:07.249Z,13.70
2022-10-21T10:51:36.161Z,14.17
2022-10-21T10:54:28.286Z,15.03
2022-10-21T10:57:34.182Z,14.53
2022-10-21T11:00:18.720Z,14.37
2022-10-21T11:03:02.623Z,13.83
2022-10-21T11:05:50.805Z,13.10
2022-10-21T11:08:42.272Z,14.10
2022-10-21T11:11:44.963Z,12.17
2022-10-21T11:14:21.848Z,12.40
2022-10-21T11:17:12.522Z,13.23
2022-10-21T11:20:15.150Z,13.93
2022-10-21T11:25:53.109Z,14.17
2022-10-21T11:28:56.026Z,14.33
2022-10-21T11:32:14.245Z,13.73
2022-10-21T11:35:18.013Z,13.47
2022-10-21T11:38:30.033Z,13.30
2022-10-21T11:41:32.513Z,17.43
2022-10-21T11:44:39.777Z,15.53
2022-10-21T11:47:30.667Z,15.47
2022-10-21T11:53:10.046Z,15.13
2022-10-21T11:56:41.658Z,16.13
2022-10-21T11:59:54.081Z,15.03
2022-10-21T12:02:42.765Z,14.47
2022-10-21T12:05:35.055Z,14.70
2022-10-21T12:08:51.644Z,14.50
2022-10-21T12:11:54.799Z,14.03
2022-10-21T12:14:34.024Z,13.00
2022-10-21T12:17:09.561Z,14.57
2022-10-21T12:19:38.054Z,14.70
2022-10-21T12:22:05.990Z,14.07
2022-10-21T12:25:14.622Z,13.00
2022-10-21T12:27:53.317Z,12.80
2022-10-21T12:30:36.863Z,13.40
2022-10-21T12:33:16.477Z,13.37
2022-10-21T12:36:11.625Z,14.03
2022-10-21T12:38:49.561Z,13.33
2022-10-21T12:41:33.719Z,13.57
2022-10-21T12:44:03.874Z,15.37
2022-10-21T12:46:33.676Z,14.63
2022-10-21T12:49:10.701Z,15.00
2022-10-21T12:51:39.316Z,13.83
2022-10-21T12:54:16.473Z,13.40
2022-10-21T12:56:49.454Z,14.67
2022-10-21T12:59:42.642Z,13.20
2022-10-21T13:02:24.837Z,13.63
2022-10-21T13:04:57.471Z,13.50
2022-10-21T13:07:33.162Z,14.00
2022-10-21T13:10:00.335Z,13.10
2022-10-21T13:12:32.283Z,13.87
2022-10-21T13:15:01.701Z,13.60
2022-10-21T13:17:49.101Z,13.53
2022-10-21T13:20:16.274Z,12.90
2022-10-21T13:22:46.800Z,15.43
2022-10-21T13:25:22.945Z,16.93
2022-10-21T13:28:13.015Z,15.90
2022-10-21T13:30:59.393Z,17.07
2022-10-21T13:33:33.826Z,15.77
2022-10-21T13:36:14.165Z,15.63
2022-10-21T13:38:54.403Z,12.83
2022-10-21T13:41:26.492Z,13.43
2022-10-21T13:44:04.353Z,13.40
2022-10-21T13:46:40.681Z,12.67
2022-10-21T13:49:33.305Z,15.07
2022-10-21T13:52:00.752Z,14.27
2022-10-21T13:54:35.377Z,13.70
2022-10-21T13:57:09.871Z,13.57
2022-10-21T13:59:37.126Z,13.30
2022-10-21T14:02:04.397Z,17.17
2022-10-21T14:04:34.164Z,14.70
2022-10-21T14:07:04.622Z,14.13
2022-10-21T14:09:45.467Z,12.47
2022-10-21T14:12:25.634Z,12.10
2022-10-21T14:14:57.906Z,12.20
2022-10-21T14:17:27.870Z,12.53
2022-10-21T14:20:06.666Z,11.43
2022-10-21T14:22:34.611Z,12.20
2022-10-21T14:25:03.292Z,12.20
2022-10-21T14:27:35.834Z,13.07
2022-10-21T14:30:07.561Z,12.27
2022-10-21T14:32:35.421Z,12.13
2022-10-21T14:35:29.170Z,11.83
2022-10-21T14:38:03.208Z,12.00
2022-10-21T14:40:33.186Z,12.20
2022-10-21T14:43:32.948Z,12.00
2022-10-21T14:46:01.096Z,13.73
2022-10-21T14:48:38.180Z,15.80
2022-10-21T14:51:19.138Z,26.00
2022-10-21T14:53:58.602Z,15.53
2022-10-21T14:56:42.813Z,13.57
2022-10-21T14:59:41.526Z,11.87
2022-10-21T15:02:26.933Z,10.87
2022-10-21T15:05:01.751Z,10.77
2022-10-21T15:07:39.703Z,11.10
2022-10-21T15:10:17.356Z,9.87
2022-10-21T15:12:50.281Z,9.97
2022-10-21T15:15:49.711Z,8.20
2022-10-21T15:18:41.703Z,8.80
2022-10-21T15:21:13.823Z,9.83
2022-10-21T15:23:55.397Z,9.63
2022-10-21T15:26:57.891Z,9.87
2022-10-21T15:29:31.093Z,11.00
2022-10-21T15:31:58.728Z,11.63
2022-10-21T15:34:26.027Z,11.20
2022-10-21T15:36:53.317Z,10.90
2022-10-21T15:39:20.714Z,11.40
2022-10-21T15:41:52.125Z,10.57
2022-10-21T15:44:27.229Z,10.30
2022-10-21T15:46:56.674Z,10.87
2022-10-21T15:49:33.047Z,10.40
2022-10-21T15:52:00.793Z,10.20
2022-10-21T15:54:28.208Z,10.17
2022-10-21T15:56:57.709Z,9.73
2022-10-21T15:59:32.446Z,10.30
2022-10-21T16:02:00.312Z,9.90
2022-10-21T16:04:27.982Z,9.43
2022-10-21T16:06:56.080Z,9.10
2022-10-21T16:09:29.300Z,10.33
2022-10-21T16:12:00.758Z,9.27
2022-10-21T16:14:30.780Z,9.03
2022-10-21T16:16:59.476Z,8.70
2022-10-21T16:19:27.366Z,8.60
2022-10-21T16:21:55.074Z,9.10
2022-10-21T16:24:22.305Z,9.30
2022-10-21T16:26:50.323Z,9.80
2022-10-21T16:29:25.506Z,10.40
2022-10-21T16:31:53.043Z,11.23
2022-10-21T16:34:20.428Z,10.57
2022-10-21T16:36:47.999Z,11.60
2022-10-21T16:39:19.286Z,12.40
2022-10-21T16:41:46.521Z,13.13
2022-10-21T16:44:14.294Z,12.73
2022-10-21T16:46:49.536Z,13.63
2022-10-21T16:49:24.733Z,14.90
2022-10-21T16:51:53.074Z,14.90
2022-10-21T16:54:23.241Z,15.03
2022-10-21T16:56:53.308Z,17.17
2022-10-21T16:59:23.015Z,12.67
2022-10-21T17:01:50.471Z,12.70
2022-10-21T17:04:17.710Z,12.00
2022-10-21T17:06:44.979Z,12.00
2022-10-21T17:09:12.233Z,10.57
2022-10-21T17:11:40.997Z,10.53
2022-10-21T17:14:15.551Z,11.43
2022-10-21T17:16:42.891Z,12.13
2022-10-21T17:19:10.043Z,11.73
2022-10-21T17:21:37.457Z,11.10
2022-10-21T17:24:05.676Z,11.00
2022-10-21T17:26:33.435Z,10.50
2022-10-21T17:29:00.983Z,10.40
2022-10-21T17:31:30.582Z,10.67
2022-10-21T17:34:02.265Z,11.10
2022-10-21T17:36:29.484Z,10.87
2022-10-21T17:38:56.667Z,11.27
2022-10-21T17:41:24.054Z,10.70
2022-10-21T17:43:51.184Z,10.23
2022-10-21T17:46:24.816Z,10.13
2022-10-21T17:48:54.500Z,9.70
2022-10-21T17:51:23.564Z,10.80
2022-10-21T17:53:53.914Z,10.97
2022-10-21T17:56:22.688Z,11.07
2022-10-21T17:58:54.230Z,10.07
2022-10-21T18:01:25.930Z,10.97
2022-10-21T18:03:54.650Z,11.17
2022-10-21T18:06:21.874Z,12.10
2022-10-21T18:08:59.400Z,13.47
2022-10-21T18:11:28.068Z,10.63
2022-10-21T18:13:56.195Z,10.47
2022-10-21T18:16:25.179Z,10.53
2022-10-21T18:18:52.615Z,10.93
2022-10-21T18:21:23.997Z,10.43
2022-10-21T18:23:54.085Z,10.33
2022-10-21T18:26:28.803Z,10.93
2022-10-21T18:29:03.176Z,10.47
2022-10-21T18:31:34.330Z,10.20
2022-10-21T18:34:04.426Z,9.63
2022-10-21T18:36:36.485Z,10.17
2022-10-21T18:39:07.942Z,9.37
2022-10-21T18:41:36.496Z,9.77
2022-10-21T18:44:08.170Z,10.23
2022-10-21T18:46:39.273Z,10.87
2022-10-21T18:49:12.304Z,9.67
2022-10-21T18:51:40.337Z,9.57
2022-10-21T18:54:08.250Z,9.77
2022-10-21T18:56:35.628Z,9.93
2022-10-21T18:59:05.186Z,11.10
2022-10-21T19:01:32.640Z,10.47
2022-10-21T19:04:01.506Z,10.80
2022-10-21T19:06:33.139Z,10.43
2022-10-21T19:09:02.398Z,11.03
2022-10-21T19:11:31.142Z,10.67
2022-10-21T19:13:59.504Z,11.07
2022-10-21T19:16:27.250Z,10.20
2022-10-21T19:18:54.861Z,11.00
2022-10-21T19:21:23.947Z,10.50
2022-10-21T19:23:54.473Z,10.87
2022-10-21T19:26:23.391Z,10.40
2022-10-21T19:28:51.316Z,10.93
2022-10-21T19:31:19.112Z,11.30
2022-10-21T19:33:46.462Z,12.20
2022-10-21T19:36:13.643Z,11.40
2022-10-21T19:38:44.422Z,11.97
2022-10-21T19:41:22.462Z,10.93
2022-10-21T19:43:50.427Z,10.43
2022-10-21T19:46:25.519Z,10.77
2022-10-21T19:48:54.105Z,11.20
2022-10-21T19:51:25.030Z,10.60
2022-10-21T19:53:54.092Z,11.20
2022-10-21T19:56:25.720Z,11.80
2022-10-21T19:58:55.823Z,12.23
2022-10-21T20:01:26.040Z,10.90
2022-10-21T20:03:54.961Z,11.50
2022-10-21T20:06:30.269Z,10.60
2022-10-21T20:09:00.855Z,10.67
2022-10-21T20:11:30.518Z,11.57
2022-10-21T20:13:58.057Z,11.30
2022-10-21T20:16:37.025Z,11.07
2022-10-21T20:19:07.063Z,12.00
2022-10-21T20:21:36.186Z,11.73
2022-10-21T20:24:04.780Z,10.67
2022-10-21T20:26:32.130Z,10.83
2022-10-21T20:29:00.647Z,11.10
2022-10-21T20:31:28.620Z,10.73
2022-10-21T20:33:56.444Z,10.83
2022-10-21T20:36:29.637Z,11.17
2022-10-21T20:39:12.558Z,11.40
2022-10-21T20:41:40.457Z,11.33
2022-10-21T20:44:13.902Z,11.57
2022-10-21T20:46:41.049Z,11.97
2022-10-21T20:49:09.139Z,11.27
2022-10-21T20:51:40.012Z,11.30
2022-10-21T20:54:13.229Z,10.90
2022-10-21T20:56:41.640Z,10.97
2022-10-21T20:59:12.989Z,10.20
2022-10-21T21:01:47.591Z,10.93
2022-10-21T21:04:17.699Z,10.07
2022-10-21T21:06:48.655Z,10.33
2022-10-21T21:12:07.102Z,10.37
2022-10-21T21:14:34.291Z,9.70
2022-10-21T21:17:01.551Z,9.20
2022-10-21T21:19:28.817Z,8.90
2022-10-21T21:21:56.359Z,8.63
2022-10-21T21:24:23.561Z,8.20
2022-10-21T21:26:50.760Z,7.93
2022-10-21T21:29:18.131Z,7.30
2022-10-21T21:31:45.334Z,6.97
2022-10-21T21:34:12.526Z,7.07
2022-10-21T21:36:40.160Z,7.07
2022-10-21T21:39:08.950Z,6.37
2022-10-21T21:41:36.269Z,6.00
2022-10-21T21:44:05.296Z,6.10
2022-10-21T21:46:32.892Z,6.00
2022-10-21T21:49:05.433Z,5.70
2022-10-21T21:51:35.751Z,5.30
2022-10-21T21:54:05.185Z,5.50
2022-10-21T21:56:32.400Z,5.50
2022-10-21T21:58:59.618Z,5.77
2022-10-21T22:01:29.659Z,6.30
2022-10-21T22:03:58.604Z,5.20
2022-10-21T22:06:30.691Z,5.47
2022-10-21T22:08:58.967Z,5.70
2022-10-21T22:11:32.394Z,6.50
2022-10-21T22:14:00.434Z,5.90
2022-10-21T22:16:27.703Z,6.00
2022-10-21T22:18:55.109Z,5.80
2022-10-21T22:21:22.754Z,5.73
2022-10-21T22:23:50.333Z,5.57
2022-10-21T22:26:20.727Z,5.30
2022-10-21T22:28:48.085Z,6.43
2022-10-21T22:31:18.963Z,6.90
2022-10-21T22:33:46.705Z,6.87
2022-10-21T22:36:15.196Z,6.67
2022-10-21T22:38:42.753Z,6.47
2022-10-21T22:41:12.517Z,5.97
2022-10-21T22:43:40.610Z,6.27
2022-10-21T22:48:55.324Z,5.83
2022-10-21T22:51:22.828Z,6.10
2022-10-21T22:53:55.215Z,5.90
2022-10-21T22:56:25.903Z,5.40
2022-10-21T22:58:53.483Z,5.73
2022-10-21T23:01:20.947Z,6.37
2022-10-21T23:03:48.284Z,5.87
2022-10-21T23:06:15.727Z,6.03
2022-10-21T23:08:42.938Z,5.70
2022-10-21T23:11:10.219Z,6.60
2022-10-21T23:13:37.557Z,5.73
2022-10-21T23:16:05.247Z,5.73
2022-10-21T23:18:32.639Z,5.70
2022-10-21T23:20:59.770Z,5.90
2022-10-21T23:23:27.029Z,6.43
2022-10-21T23:25:54.197Z,5.93
2022-10-21T23:28:21.396Z,6.00
2022-10-21T23:30:48.902Z,6.57
2022-10-21T23:33:16.154Z,6.20
2022-10-21T23:35:43.282Z,6.70
2022-10-21T23:38:10.492Z,5.97
2022-10-21T23:40:37.661Z,6.07
2022-10-21T23:43:05.105Z,6.27
2022-10-21T23:45:32.550Z,5.87
2022-10-21T23:47:59.930Z,5.33
2022-10-21T23:50:27.853Z,5.63
2022-10-21T23:52:55.123Z,6.13
2022-10-21T23:55:22.381Z,5.97
2022-10-21T23:57:50.341Z,5.47
